sensor_id;sensor_type;location;lat;lon;timestamp;P1;durP1;ratioP1;P2;durP2;ratioP2
56401;SDS011;42299;35.160;26.100;2023-02-01T00:01:05;13.88;;;8.45;;
56401;SDS011;42299;35.160;26.100;2023-02-01T00:02:28;11.55;;;7.20;;
56401;SDS011;42299;35.160;26.100;2023-02-01T00:03:50;13.52;;;7.70;;
56401;SDS011;42299;35.160;26.100;2023-02-01T00:05:14;10.73;;;5.95;;
56401;SDS011;42299;35.160;26.100;2023-02-01T00:06:36;10.73;;;5.28;;
56401;SDS011;42299;35.160;26.100;2023-02-01T00:07:59;26.75;;;20.63;;
56401;SDS011;42299;35.160;26.100;2023-02-01T00:09:21;17.88;;;10.63;;
56401;SDS011;42299;35.160;26.100;2023-02-01T00:10:42;13.55;;;6.30;;
56401;SDS011;42299;35.160;26.100;2023-02-01T00:12:04;9.00;;;5.25;;
56401;SDS011;42299;35.160;26.100;2023-02-01T00:13:27;8.02;;;4.43;;
56401;SDS011;42299;35.160;26.100;2023-02-01T00:14:51;7.32;;;4.40;;
56401;SDS011;42299;35.160;26.100;2023-02-01T00:16:14;8.20;;;3.70;;
56401;SDS011;42299;35.160;26.100;2023-02-01T00:17:36;6.60;;;3.10;;
56401;SDS011;42299;35.160;26.100;2023-02-01T00:18:59;9.38;;;3.83;;
56401;SDS011;42299;35.160;26.100;2023-02-01T00:20:23;11.07;;;6.47;;
56401;SDS011;42299;35.160;26.100;2023-02-01T00:21:46;16.92;;;10.80;;
56401;SDS011;42299;35.160;26.100;2023-02-01T00:23:09;14.07;;;10.90;;
56401;SDS011;42299;35.160;26.100;2023-02-01T00:24:32;10.77;;;7.78;;
56401;SDS011;42299;35.160;26.100;2023-02-01T00:25:53;5.80;;;2.50;;
56401;SDS011;42299;35.160;26.100;2023-02-01T00:27:15;6.75;;;2.50;;
56401;SDS011;42299;35.160;26.100;2023-02-01T00:28:40;9.55;;;2.88;;
56401;SDS011;42299;35.160;26.100;2023-02-01T00:30:02;6.95;;;2.83;;
56401;SDS011;42299;35.160;26.100;2023-02-01T00:31:24;9.05;;;3.80;;
56401;SDS011;42299;35.160;26.100;2023-02-01T00:32:46;9.80;;;2.85;;
56401;SDS011;42299;35.160;26.100;2023-02-01T00:34:08;8.95;;;3.50;;
56401;SDS011;42299;35.160;26.100;2023-02-01T00:35:34;8.23;;;3.35;;
56401;SDS011;42299;35.160;26.100;2023-02-01T00:36:57;11.45;;;5.60;;
56401;SDS011;42299;35.160;26.100;2023-02-01T00:38:18;9.90;;;5.15;;
56401;SDS011;42299;35.160;26.100;2023-02-01T00:39:40;8.80;;;4.70;;
56401;SDS011;42299;35.160;26.100;2023-02-01T00:41:03;8.55;;;4.20;;
56401;SDS011;42299;35.160;26.100;2023-02-01T00:42:26;11.48;;;4.63;;
56401;SDS011;42299;35.160;26.100;2023-02-01T00:43:48;7.95;;;3.97;;
56401;SDS011;42299;35.160;26.100;2023-02-01T00:45:10;8.68;;;3.78;;
56401;SDS011;42299;35.160;26.100;2023-02-01T00:46:32;8.25;;;3.85;;
56401;SDS011;42299;35.160;26.100;2023-02-01T00:47:55;8.73;;;3.40;;
56401;SDS011;42299;35.160;26.100;2023-02-01T00:49:16;6.70;;;3.80;;
56401;SDS011;42299;35.160;26.100;2023-02-01T00:50:42;6.07;;;3.28;;
56401;SDS011;42299;35.160;26.100;2023-02-01T00:52:03;8.32;;;3.45;;
56401;SDS011;42299;35.160;26.100;2023-02-01T00:53:26;8.52;;;3.42;;
56401;SDS011;42299;35.160;26.100;2023-02-01T00:54:48;6.78;;;3.28;;
56401;SDS011;42299;35.160;26.100;2023-02-01T00:56:09;8.50;;;3.08;;
56401;SDS011;42299;35.160;26.100;2023-02-01T00:57:32;7.22;;;2.50;;
56401;SDS011;42299;35.160;26.100;2023-02-01T00:58:54;7.25;;;4.60;;
56401;SDS011;42299;35.160;26.100;2023-02-01T01:00:16;9.45;;;5.85;;
56401;SDS011;42299;35.160;26.100;2023-02-01T01:01:39;12.93;;;6.45;;
56401;SDS011;42299;35.160;26.100;2023-02-01T01:03:02;12.40;;;5.38;;
56401;SDS011;42299;35.160;26.100;2023-02-01T01:04:23;9.85;;;4.72;;
56401;SDS011;42299;35.160;26.100;2023-02-01T01:05:47;4.28;;;2.50;;
56401;SDS011;42299;35.160;26.100;2023-02-01T01:07:10;5.00;;;2.25;;
56401;SDS011;42299;35.160;26.100;2023-02-01T01:08:32;6.13;;;2.20;;
56401;SDS011;42299;35.160;26.100;2023-02-01T01:09:54;7.13;;;2.28;;
56401;SDS011;42299;35.160;26.100;2023-02-01T01:11:17;4.82;;;2.08;;
56401;SDS011;42299;35.160;26.100;2023-02-01T01:12:40;5.20;;;2.33;;
56401;SDS011;42299;35.160;26.100;2023-02-01T01:14:04;6.18;;;2.60;;
56401;SDS011;42299;35.160;26.100;2023-02-01T01:15:27;8.63;;;2.88;;
56401;SDS011;42299;35.160;26.100;2023-02-01T01:16:48;5.80;;;2.30;;
56401;SDS011;42299;35.160;26.100;2023-02-01T01:18:11;6.18;;;2.72;;
56401;SDS011;42299;35.160;26.100;2023-02-01T01:19:33;6.38;;;3.22;;
56401;SDS011;42299;35.160;26.100;2023-02-01T01:20:56;8.18;;;3.20;;
56401;SDS011;42299;35.160;26.100;2023-02-01T01:22:19;6.15;;;3.15;;
56401;SDS011;42299;35.160;26.100;2023-02-01T01:23:41;7.60;;;2.65;;
56401;SDS011;42299;35.160;26.100;2023-02-01T01:27:49;5.32;;;3.50;;
56401;SDS011;42299;35.160;26.100;2023-02-01T01:29:10;8.70;;;3.22;;
56401;SDS011;42299;35.160;26.100;2023-02-01T01:30:33;6.35;;;2.20;;
56401;SDS011;42299;35.160;26.100;2023-02-01T01:31:54;7.45;;;2.17;;
56401;SDS011;42299;35.160;26.100;2023-02-01T01:33:17;9.20;;;2.42;;
56401;SDS011;42299;35.160;26.100;2023-02-01T01:34:38;8.38;;;2.45;;
56401;SDS011;42299;35.160;26.100;2023-02-01T01:36:02;8.70;;;2.65;;
56401;SDS011;42299;35.160;26.100;2023-02-01T01:37:26;4.90;;;2.65;;
56401;SDS011;42299;35.160;26.100;2023-02-01T01:38:48;6.97;;;3.78;;
56401;SDS011;42299;35.160;26.100;2023-02-01T01:40:11;6.63;;;3.25;;
56401;SDS011;42299;35.160;26.100;2023-02-01T01:41:33;6.40;;;3.30;;
56401;SDS011;42299;35.160;26.100;2023-02-01T01:43:12;5.60;;;2.90;;
56401;SDS011;42299;35.160;26.100;2023-02-01T01:44:57;6.15;;;2.85;;
56401;SDS011;42299;35.160;26.100;2023-02-01T01:46:25;6.43;;;3.13;;
56401;SDS011;42299;35.160;26.100;2023-02-01T01:47:48;5.57;;;3.47;;
56401;SDS011;42299;35.160;26.100;2023-02-01T01:49:13;8.48;;;3.65;;
56401;SDS011;42299;35.160;26.100;2023-02-01T01:50:39;4.80;;;2.65;;
56401;SDS011;42299;35.160;26.100;2023-02-01T01:52:04;7.57;;;2.17;;
56401;SDS011;42299;35.160;26.100;2023-02-01T01:53:30;7.88;;;2.15;;
56401;SDS011;42299;35.160;26.100;2023-02-01T01:54:54;3.80;;;1.60;;
56401;SDS011;42299;35.160;26.100;2023-02-01T01:56:19;6.38;;;1.88;;
56401;SDS011;42299;35.160;26.100;2023-02-01T01:59:05;3.97;;;1.30;;
56401;SDS011;42299;35.160;26.100;2023-02-01T02:00:29;4.68;;;1.27;;
56401;SDS011;42299;35.160;26.100;2023-02-01T02:01:52;3.55;;;1.27;;
56401;SDS011;42299;35.160;26.100;2023-02-01T02:03:17;5.53;;;1.75;;
56401;SDS011;42299;35.160;26.100;2023-02-01T02:04:40;6.07;;;1.40;;
56401;SDS011;42299;35.160;26.100;2023-02-01T02:06:03;2.08;;;1.27;;
56401;SDS011;42299;35.160;26.100;2023-02-01T02:07:36;3.58;;;1.55;;
56401;SDS011;42299;35.160;26.100;2023-02-01T02:09:01;3.80;;;1.60;;
56401;SDS011;42299;35.160;26.100;2023-02-01T02:10:24;5.10;;;1.90;;
56401;SDS011;42299;35.160;26.100;2023-02-01T02:13:29;4.50;;;1.55;;
56401;SDS011;42299;35.160;26.100;2023-02-01T02:14:53;4.88;;;1.55;;
56401;SDS011;42299;35.160;26.100;2023-02-01T02:16:19;3.10;;;1.63;;
56401;SDS011;42299;35.160;26.100;2023-02-01T02:17:51;4.43;;;1.35;;
56401;SDS011;42299;35.160;26.100;2023-02-01T02:19:32;3.92;;;1.92;;
56401;SDS011;42299;35.160;26.100;2023-02-01T02:21:30;5.25;;;1.55;;
56401;SDS011;42299;35.160;26.100;2023-02-01T02:27:09;13.02;;;8.30;;
56401;SDS011;42299;35.160;26.100;2023-02-01T02:30:51;8.07;;;4.32;;
56401;SDS011;42299;35.160;26.100;2023-02-01T02:34:24;5.05;;;2.28;;
56401;SDS011;42299;35.160;26.100;2023-02-01T02:35:50;5.35;;;2.20;;
56401;SDS011;42299;35.160;26.100;2023-02-01T02:37:22;5.90;;;2.45;;
56401;SDS011;42299;35.160;26.100;2023-02-01T02:38:55;19.25;;;12.68;;
56401;SDS011;42299;35.160;26.100;2023-02-01T02:40:27;24.67;;;19.80;;
56401;SDS011;42299;35.160;26.100;2023-02-01T02:41:57;26.25;;;20.42;;
56401;SDS011;42299;35.160;26.100;2023-02-01T02:43:43;19.90;;;14.45;;
56401;SDS011;42299;35.160;26.100;2023-02-01T02:45:28;12.55;;;8.05;;
56401;SDS011;42299;35.160;26.100;2023-02-01T02:47:13;19.40;;;12.85;;
56401;SDS011;42299;35.160;26.100;2023-02-01T02:48:46;13.90;;;9.40;;
56401;SDS011;42299;35.160;26.100;2023-02-01T02:50:17;13.63;;;8.25;;
56401;SDS011;42299;35.160;26.100;2023-02-01T02:52:03;13.60;;;6.15;;
56401;SDS011;42299;35.160;26.100;2023-02-01T02:53:48;14.82;;;7.90;;
56401;SDS011;42299;35.160;26.100;2023-02-01T02:55:34;12.57;;;7.03;;
56401;SDS011;42299;35.160;26.100;2023-02-01T02:57:02;8.65;;;4.30;;
56401;SDS011;42299;35.160;26.100;2023-02-01T02:58:45;8.15;;;2.90;;
56401;SDS011;42299;35.160;26.100;2023-02-01T03:00:28;7.07;;;3.50;;
56401;SDS011;42299;35.160;26.100;2023-02-01T03:02:11;10.80;;;4.80;;
56401;SDS011;42299;35.160;26.100;2023-02-01T03:03:52;6.47;;;3.03;;
56401;SDS011;42299;35.160;26.100;2023-02-01T03:05:35;9.90;;;3.97;;
56401;SDS011;42299;35.160;26.100;2023-02-01T03:07:09;9.27;;;3.35;;
56401;SDS011;42299;35.160;26.100;2023-02-01T03:08:34;9.23;;;4.00;;
56401;SDS011;42299;35.160;26.100;2023-02-01T03:09:55;9.50;;;4.32;;
56401;SDS011;42299;35.160;26.100;2023-02-01T03:11:18;11.43;;;4.90;;
56401;SDS011;42299;35.160;26.100;2023-02-01T03:12:42;9.25;;;3.70;;
56401;SDS011;42299;35.160;26.100;2023-02-01T03:14:22;10.73;;;4.38;;
56401;SDS011;42299;35.160;26.100;2023-02-01T03:15:51;7.45;;;3.25;;
56401;SDS011;42299;35.160;26.100;2023-02-01T03:17:19;8.18;;;3.70;;
56401;SDS011;42299;35.160;26.100;2023-02-01T03:18:48;10.18;;;5.22;;
56401;SDS011;42299;35.160;26.100;2023-02-01T03:20:16;9.25;;;3.53;;
56401;SDS011;42299;35.160;26.100;2023-02-01T03:21:43;10.75;;;4.57;;
56401;SDS011;42299;35.160;26.100;2023-02-01T03:23:08;9.65;;;6.35;;
56401;SDS011;42299;35.160;26.100;2023-02-01T03:24:34;11.02;;;4.70;;
56401;SDS011;42299;35.160;26.100;2023-02-01T03:26:01;12.95;;;5.30;;
56401;SDS011;42299;35.160;26.100;2023-02-01T03:27:29;8.32;;;3.58;;
56401;SDS011;42299;35.160;26.100;2023-02-01T03:28:57;13.40;;;4.43;;
56401;SDS011;42299;35.160;26.100;2023-02-01T03:30:28;8.85;;;3.70;;
56401;SDS011;42299;35.160;26.100;2023-02-01T03:31:54;12.35;;;5.45;;
56401;SDS011;42299;35.160;26.100;2023-02-01T03:33:17;9.13;;;4.10;;
56401;SDS011;42299;35.160;26.100;2023-02-01T03:34:44;8.60;;;4.20;;
56401;SDS011;42299;35.160;26.100;2023-02-01T03:36:13;8.80;;;4.20;;
56401;SDS011;42299;35.160;26.100;2023-02-01T03:37:41;8.98;;;4.90;;
56401;SDS011;42299;35.160;26.100;2023-02-01T03:39:03;8.23;;;3.90;;
56401;SDS011;42299;35.160;26.100;2023-02-01T03:40:32;10.88;;;4.47;;
56401;SDS011;42299;35.160;26.100;2023-02-01T03:41:57;8.07;;;4.18;;
56401;SDS011;42299;35.160;26.100;2023-02-01T03:43:23;9.55;;;3.40;;
56401;SDS011;42299;35.160;26.100;2023-02-01T03:44:49;7.75;;;3.70;;
56401;SDS011;42299;35.160;26.100;2023-02-01T03:46:17;5.85;;;3.30;;
56401;SDS011;42299;35.160;26.100;2023-02-01T03:47:44;5.15;;;3.08;;
56401;SDS011;42299;35.160;26.100;2023-02-01T03:49:11;10.43;;;5.00;;
56401;SDS011;42299;35.160;26.100;2023-02-01T03:50:38;7.40;;;3.95;;
56401;SDS011;42299;35.160;26.100;2023-02-01T03:52:05;8.20;;;4.78;;
56401;SDS011;42299;35.160;26.100;2023-02-01T03:53:32;8.95;;;4.60;;
56401;SDS011;42299;35.160;26.100;2023-02-01T03:54:57;10.02;;;6.38;;
56401;SDS011;42299;35.160;26.100;2023-02-01T03:56:21;15.57;;;9.68;;
56401;SDS011;42299;35.160;26.100;2023-02-01T03:57:46;11.18;;;5.13;;
56401;SDS011;42299;35.160;26.100;2023-02-01T03:59:14;6.72;;;3.28;;
56401;SDS011;42299;35.160;26.100;2023-02-01T04:00:37;7.57;;;2.92;;
56401;SDS011;42299;35.160;26.100;2023-02-01T04:01:58;8.45;;;3.10;;
56401;SDS011;42299;35.160;26.100;2023-02-01T04:03:21;8.77;;;3.00;;
56401;SDS011;42299;35.160;26.100;2023-02-01T04:04:42;7.68;;;3.58;;
56401;SDS011;42299;35.160;26.100;2023-02-01T04:06:08;8.77;;;3.42;;
56401;SDS011;42299;35.160;26.100;2023-02-01T04:07:30;9.38;;;3.92;;
56401;SDS011;42299;35.160;26.100;2023-02-01T04:08:53;7.57;;;3.20;;
56401;SDS011;42299;35.160;26.100;2023-02-01T04:10:16;7.63;;;4.13;;
56401;SDS011;42299;35.160;26.100;2023-02-01T04:11:37;8.15;;;4.20;;
56401;SDS011;42299;35.160;26.100;2023-02-01T04:13:00;7.65;;;3.75;;
56401;SDS011;42299;35.160;26.100;2023-02-01T04:14:22;8.45;;;3.13;;
56401;SDS011;42299;35.160;26.100;2023-02-01T04:15:44;9.02;;;3.22;;
56401;SDS011;42299;35.160;26.100;2023-02-01T04:17:10;7.88;;;3.15;;
56401;SDS011;42299;35.160;26.100;2023-02-01T04:18:41;5.82;;;2.65;;
56401;SDS011;42299;35.160;26.100;2023-02-01T04:20:05;7.13;;;3.05;;
56401;SDS011;42299;35.160;26.100;2023-02-01T04:21:30;10.18;;;3.35;;
56401;SDS011;42299;35.160;26.100;2023-02-01T04:23:03;7.20;;;3.70;;
56401;SDS011;42299;35.160;26.100;2023-02-01T04:24:30;7.18;;;3.20;;
56401;SDS011;42299;35.160;26.100;2023-02-01T04:26:13;9.38;;;3.33;;
56401;SDS011;42299;35.160;26.100;2023-02-01T04:27:34;7.97;;;3.38;;
56401;SDS011;42299;35.160;26.100;2023-02-01T04:28:58;6.82;;;3.55;;
56401;SDS011;42299;35.160;26.100;2023-02-01T04:30:21;8.45;;;2.90;;
56401;SDS011;42299;35.160;26.100;2023-02-01T04:31:44;9.32;;;4.70;;
56401;SDS011;42299;35.160;26.100;2023-02-01T04:33:06;10.27;;;3.35;;
56401;SDS011;42299;35.160;26.100;2023-02-01T04:34:28;7.03;;;2.85;;
56401;SDS011;42299;35.160;26.100;2023-02-01T04:35:50;7.32;;;3.40;;
56401;SDS011;42299;35.160;26.100;2023-02-01T04:37:12;11.75;;;4.28;;
56401;SDS011;42299;35.160;26.100;2023-02-01T04:38:34;7.25;;;3.58;;
56401;SDS011;42299;35.160;26.100;2023-02-01T04:39:58;7.95;;;4.65;;
56401;SDS011;42299;35.160;26.100;2023-02-01T04:41:20;8.57;;;3.00;;
56401;SDS011;42299;35.160;26.100;2023-02-01T04:42:43;8.38;;;2.70;;
56401;SDS011;42299;35.160;26.100;2023-02-01T04:44:05;6.97;;;2.72;;
56401;SDS011;42299;35.160;26.100;2023-02-01T04:45:27;7.30;;;2.83;;
56401;SDS011;42299;35.160;26.100;2023-02-01T04:46:50;7.47;;;3.78;;
56401;SDS011;42299;35.160;26.100;2023-02-01T04:48:12;8.75;;;4.20;;
56401;SDS011;42299;35.160;26.100;2023-02-01T04:49:33;20.25;;;10.48;;
56401;SDS011;42299;35.160;26.100;2023-02-01T04:50:56;7.60;;;3.20;;
56401;SDS011;42299;35.160;26.100;2023-02-01T04:52:17;11.45;;;3.53;;
56401;SDS011;42299;35.160;26.100;2023-02-01T04:53:39;7.00;;;2.92;;
56401;SDS011;42299;35.160;26.100;2023-02-01T04:55:02;5.57;;;2.20;;
56401;SDS011;42299;35.160;26.100;2023-02-01T04:56:25;9.20;;;2.60;;
56401;SDS011;42299;35.160;26.100;2023-02-01T04:57:47;7.70;;;2.38;;
56401;SDS011;42299;35.160;26.100;2023-02-01T04:59:10;5.38;;;2.28;;
56401;SDS011;42299;35.160;26.100;2023-02-01T05:00:31;8.20;;;2.45;;
56401;SDS011;42299;35.160;26.100;2023-02-01T05:01:53;5.75;;;2.13;;
56401;SDS011;42299;35.160;26.100;2023-02-01T05:03:15;6.07;;;2.90;;
56401;SDS011;42299;35.160;26.100;2023-02-01T05:04:37;5.60;;;2.40;;
56401;SDS011;42299;35.160;26.100;2023-02-01T05:06:00;7.28;;;2.40;;
56401;SDS011;42299;35.160;26.100;2023-02-01T05:07:24;8.57;;;3.47;;
56401;SDS011;42299;35.160;26.100;2023-02-01T05:08:45;13.05;;;5.75;;
56401;SDS011;42299;35.160;26.100;2023-02-01T05:10:10;9.48;;;2.80;;
56401;SDS011;42299;35.160;26.100;2023-02-01T05:11:32;7.65;;;2.95;;
56401;SDS011;42299;35.160;26.100;2023-02-01T05:13:12;6.78;;;2.17;;
56401;SDS011;42299;35.160;26.100;2023-02-01T05:14:52;5.07;;;2.40;;
56401;SDS011;42299;35.160;26.100;2023-02-01T05:16:14;7.85;;;2.33;;
56401;SDS011;42299;35.160;26.100;2023-02-01T05:17:37;7.07;;;2.50;;
56401;SDS011;42299;35.160;26.100;2023-02-01T05:19:00;7.70;;;2.58;;
56401;SDS011;42299;35.160;26.100;2023-02-01T05:20:23;6.57;;;2.22;;
56401;SDS011;42299;35.160;26.100;2023-02-01T05:21:44;7.43;;;3.20;;
56401;SDS011;42299;35.160;26.100;2023-02-01T05:23:06;11.30;;;3.00;;
56401;SDS011;42299;35.160;26.100;2023-02-01T05:24:29;10.32;;;2.65;;
56401;SDS011;42299;35.160;26.100;2023-02-01T05:25:51;28.95;;;13.70;;
56401;SDS011;42299;35.160;26.100;2023-02-01T05:27:14;30.35;;;14.02;;
56401;SDS011;42299;35.160;26.100;2023-02-01T05:28:36;108.78;;;40.53;;
56401;SDS011;42299;35.160;26.100;2023-02-01T05:29:58;74.78;;;30.80;;
56401;SDS011;42299;35.160;26.100;2023-02-01T05:31:21;50.03;;;17.83;;
56401;SDS011;42299;35.160;26.100;2023-02-01T05:32:42;12.18;;;5.63;;
56401;SDS011;42299;35.160;26.100;2023-02-01T05:34:05;10.27;;;5.25;;
56401;SDS011;42299;35.160;26.100;2023-02-01T05:35:27;9.82;;;4.30;;
56401;SDS011;42299;35.160;26.100;2023-02-01T05:36:49;10.50;;;6.80;;
56401;SDS011;42299;35.160;26.100;2023-02-01T05:38:11;9.00;;;4.53;;
56401;SDS011;42299;35.160;26.100;2023-02-01T05:39:34;8.55;;;4.80;;
56401;SDS011;42299;35.160;26.100;2023-02-01T05:40:57;11.85;;;7.75;;
56401;SDS011;42299;35.160;26.100;2023-02-01T05:42:19;12.93;;;11.57;;
56401;SDS011;42299;35.160;26.100;2023-02-01T05:43:41;12.07;;;7.40;;
56401;SDS011;42299;35.160;26.100;2023-02-01T05:45:04;14.25;;;8.38;;
56401;SDS011;42299;35.160;26.100;2023-02-01T05:46:27;14.38;;;9.43;;
56401;SDS011;42299;35.160;26.100;2023-02-01T05:47:50;14.80;;;4.32;;
56401;SDS011;42299;35.160;26.100;2023-02-01T05:49:12;6.80;;;4.40;;
56401;SDS011;42299;35.160;26.100;2023-02-01T05:50:33;10.57;;;7.13;;
56401;SDS011;42299;35.160;26.100;2023-02-01T05:52:02;7.70;;;4.68;;
56401;SDS011;42299;35.160;26.100;2023-02-01T05:54:46;10.85;;;6.60;;
56401;SDS011;42299;35.160;26.100;2023-02-01T05:56:10;9.85;;;5.50;;
56401;SDS011;42299;35.160;26.100;2023-02-01T05:57:32;11.63;;;6.35;;
56401;SDS011;42299;35.160;26.100;2023-02-01T05:58:55;20.05;;;13.48;;
56401;SDS011;42299;35.160;26.100;2023-02-01T06:00:17;21.70;;;12.35;;
56401;SDS011;42299;35.160;26.100;2023-02-01T06:01:40;19.75;;;12.75;;
56401;SDS011;42299;35.160;26.100;2023-02-01T06:03:02;14.20;;;7.07;;
56401;SDS011;42299;35.160;26.100;2023-02-01T06:04:24;14.50;;;8.43;;
56401;SDS011;42299;35.160;26.100;2023-02-01T06:05:47;11.65;;;6.95;;
56401;SDS011;42299;35.160;26.100;2023-02-01T06:07:09;8.05;;;5.85;;
56401;SDS011;42299;35.160;26.100;2023-02-01T06:08:32;5.63;;;2.80;;
56401;SDS011;42299;35.160;26.100;2023-02-01T06:09:54;7.95;;;4.45;;
56401;SDS011;42299;35.160;26.100;2023-02-01T06:11:18;14.18;;;6.50;;
56401;SDS011;42299;35.160;26.100;2023-02-01T06:12:40;9.90;;;4.72;;
56401;SDS011;42299;35.160;26.100;2023-02-01T06:14:02;10.10;;;5.30;;
56401;SDS011;42299;35.160;26.100;2023-02-01T06:15:25;9.23;;;4.47;;
56401;SDS011;42299;35.160;26.100;2023-02-01T06:16:46;15.18;;;9.65;;
56401;SDS011;42299;35.160;26.100;2023-02-01T06:18:08;13.75;;;9.00;;
56401;SDS011;42299;35.160;26.100;2023-02-01T06:19:29;7.05;;;4.13;;
56401;SDS011;42299;35.160;26.100;2023-02-01T06:20:53;13.23;;;2.70;;
56401;SDS011;42299;35.160;26.100;2023-02-01T06:22:15;6.95;;;3.95;;
56401;SDS011;42299;35.160;26.100;2023-02-01T06:23:37;6.78;;;5.05;;
56401;SDS011;42299;35.160;26.100;2023-02-01T06:24:59;5.93;;;4.03;;
56401;SDS011;42299;35.160;26.100;2023-02-01T06:26:22;4.68;;;2.70;;
56401;SDS011;42299;35.160;26.100;2023-02-01T06:27:45;6.63;;;2.55;;
56401;SDS011;42299;35.160;26.100;2023-02-01T06:29:09;8.02;;;4.90;;
56401;SDS011;42299;35.160;26.100;2023-02-01T06:30:32;8.75;;;3.88;;
56401;SDS011;42299;35.160;26.100;2023-02-01T06:31:55;6.82;;;3.45;;
56401;SDS011;42299;35.160;26.100;2023-02-01T06:33:17;5.35;;;2.63;;
56401;SDS011;42299;35.160;26.100;2023-02-01T06:34:39;5.88;;;2.60;;
56401;SDS011;42299;35.160;26.100;2023-02-01T06:36:02;11.77;;;5.25;;
56401;SDS011;42299;35.160;26.100;2023-02-01T06:37:25;11.70;;;7.80;;
56401;SDS011;42299;35.160;26.100;2023-02-01T06:38:49;7.43;;;3.30;;
56401;SDS011;42299;35.160;26.100;2023-02-01T06:40:12;11.10;;;5.15;;
56401;SDS011;42299;35.160;26.100;2023-02-01T06:41:35;4.03;;;2.42;;
56401;SDS011;42299;35.160;26.100;2023-02-01T06:42:57;5.45;;;3.63;;
56401;SDS011;42299;35.160;26.100;2023-02-01T06:44:19;8.98;;;6.65;;
56401;SDS011;42299;35.160;26.100;2023-02-01T06:45:42;8.40;;;4.10;;
56401;SDS011;42299;35.160;26.100;2023-02-01T06:47:04;7.90;;;3.00;;
56401;SDS011;42299;35.160;26.100;2023-02-01T06:48:27;10.05;;;5.18;;
56401;SDS011;42299;35.160;26.100;2023-02-01T06:49:50;8.93;;;6.97;;
56401;SDS011;42299;35.160;26.100;2023-02-01T06:51:19;6.35;;;3.97;;
56401;SDS011;42299;35.160;26.100;2023-02-01T06:52:42;10.50;;;8.07;;
56401;SDS011;42299;35.160;26.100;2023-02-01T06:54:05;8.65;;;5.97;;
56401;SDS011;42299;35.160;26.100;2023-02-01T06:55:27;5.47;;;2.80;;
56401;SDS011;42299;35.160;26.100;2023-02-01T06:56:51;8.55;;;5.78;;
56401;SDS011;42299;35.160;26.100;2023-02-01T06:58:13;9.65;;;6.85;;
56401;SDS011;42299;35.160;26.100;2023-02-01T06:59:36;10.77;;;7.22;;
56401;SDS011;42299;35.160;26.100;2023-02-01T07:01:04;13.15;;;10.13;;
56401;SDS011;42299;35.160;26.100;2023-02-01T07:02:27;8.93;;;5.00;;
56401;SDS011;42299;35.160;26.100;2023-02-01T07:03:49;13.85;;;8.75;;
56401;SDS011;42299;35.160;26.100;2023-02-01T07:05:12;10.70;;;7.15;;
56401;SDS011;42299;35.160;26.100;2023-02-01T07:06:33;11.57;;;7.13;;
56401;SDS011;42299;35.160;26.100;2023-02-01T07:07:55;6.50;;;4.05;;
56401;SDS011;42299;35.160;26.100;2023-02-01T07:09:18;9.20;;;6.43;;
56401;SDS011;42299;35.160;26.100;2023-02-01T07:10:40;7.88;;;6.07;;
56401;SDS011;42299;35.160;26.100;2023-02-01T07:12:05;8.00;;;4.57;;
56401;SDS011;42299;35.160;26.100;2023-02-01T07:13:27;9.85;;;4.60;;
56401;SDS011;42299;35.160;26.100;2023-02-01T07:14:50;9.95;;;6.32;;
56401;SDS011;42299;35.160;26.100;2023-02-01T07:16:11;7.38;;;4.90;;
56401;SDS011;42299;35.160;26.100;2023-02-01T07:17:35;6.85;;;4.53;;
56401;SDS011;42299;35.160;26.100;2023-02-01T07:18:58;4.90;;;3.35;;
56401;SDS011;42299;35.160;26.100;2023-02-01T07:20:20;7.28;;;3.67;;
56401;SDS011;42299;35.160;26.100;2023-02-01T07:21:43;5.40;;;3.20;;
56401;SDS011;42299;35.160;26.100;2023-02-01T07:23:05;11.85;;;7.28;;
56401;SDS011;42299;35.160;26.100;2023-02-01T07:24:27;7.10;;;4.00;;
56401;SDS011;42299;35.160;26.100;2023-02-01T07:25:52;6.15;;;3.80;;
56401;SDS011;42299;35.160;26.100;2023-02-01T07:27:17;4.13;;;2.17;;
56401;SDS011;42299;35.160;26.100;2023-02-01T07:28:40;10.30;;;4.72;;
56401;SDS011;42299;35.160;26.100;2023-02-01T07:30:05;11.70;;;5.25;;
56401;SDS011;42299;35.160;26.100;2023-02-01T07:31:28;8.63;;;6.13;;
56401;SDS011;42299;35.160;26.100;2023-02-01T07:32:51;8.43;;;3.20;;
56401;SDS011;42299;35.160;26.100;2023-02-01T07:34:14;5.57;;;3.40;;
56401;SDS011;42299;35.160;26.100;2023-02-01T07:35:36;6.85;;;3.40;;
56401;SDS011;42299;35.160;26.100;2023-02-01T07:36:57;4.85;;;2.72;;
56401;SDS011;42299;35.160;26.100;2023-02-01T07:38:19;4.43;;;2.50;;
56401;SDS011;42299;35.160;26.100;2023-02-01T07:39:44;5.97;;;4.53;;
56401;SDS011;42299;35.160;26.100;2023-02-01T07:41:06;7.32;;;3.03;;
56401;SDS011;42299;35.160;26.100;2023-02-01T07:42:30;5.93;;;3.33;;
56401;SDS011;42299;35.160;26.100;2023-02-01T07:43:52;9.70;;;4.68;;
56401;SDS011;42299;35.160;26.100;2023-02-01T07:45:15;4.32;;;2.55;;
56401;SDS011;42299;35.160;26.100;2023-02-01T07:46:37;6.65;;;2.58;;
56401;SDS011;42299;35.160;26.100;2023-02-01T07:48:00;5.55;;;2.60;;
56401;SDS011;42299;35.160;26.100;2023-02-01T07:49:23;5.88;;;2.70;;
56401;SDS011;42299;35.160;26.100;2023-02-01T07:50:45;4.30;;;1.70;;
56401;SDS011;42299;35.160;26.100;2023-02-01T07:52:07;7.82;;;2.35;;
56401;SDS011;42299;35.160;26.100;2023-02-01T07:53:32;4.25;;;1.33;;
56401;SDS011;42299;35.160;26.100;2023-02-01T07:54:55;7.40;;;2.05;;
56401;SDS011;42299;35.160;26.100;2023-02-01T07:56:18;6.78;;;1.60;;
56401;SDS011;42299;35.160;26.100;2023-02-01T07:57:44;4.65;;;2.20;;
56401;SDS011;42299;35.160;26.100;2023-02-01T07:59:05;9.38;;;2.90;;
56401;SDS011;42299;35.160;26.100;2023-02-01T08:00:28;6.75;;;2.67;;
56401;SDS011;42299;35.160;26.100;2023-02-01T08:02:08;5.85;;;2.38;;
56401;SDS011;42299;35.160;26.100;2023-02-01T08:03:30;5.57;;;2.38;;
56401;SDS011;42299;35.160;26.100;2023-02-01T08:04:53;7.63;;;3.17;;
56401;SDS011;42299;35.160;26.100;2023-02-01T08:06:18;6.07;;;2.97;;
56401;SDS011;42299;35.160;26.100;2023-02-01T08:07:41;6.18;;;3.33;;
56401;SDS011;42299;35.160;26.100;2023-02-01T08:09:03;8.23;;;3.67;;
56401;SDS011;42299;35.160;26.100;2023-02-01T08:10:26;6.60;;;2.88;;
56401;SDS011;42299;35.160;26.100;2023-02-01T08:11:48;9.73;;;3.78;;
56401;SDS011;42299;35.160;26.100;2023-02-01T08:13:12;6.85;;;2.28;;
56401;SDS011;42299;35.160;26.100;2023-02-01T08:14:34;5.32;;;2.65;;
56401;SDS011;42299;35.160;26.100;2023-02-01T08:15:57;4.15;;;1.50;;
56401;SDS011;42299;35.160;26.100;2023-02-01T08:17:20;3.78;;;1.83;;
56401;SDS011;42299;35.160;26.100;2023-02-01T08:18:43;3.38;;;1.75;;
56401;SDS011;42299;35.160;26.100;2023-02-01T08:20:07;5.35;;;2.63;;
56401;SDS011;42299;35.160;26.100;2023-02-01T08:21:30;4.60;;;2.00;;
56401;SDS011;42299;35.160;26.100;2023-02-01T08:22:56;6.50;;;2.45;;
56401;SDS011;42299;35.160;26.100;2023-02-01T08:24:19;7.00;;;1.83;;
56401;SDS011;42299;35.160;26.100;2023-02-01T08:25:41;5.55;;;1.88;;
56401;SDS011;42299;35.160;26.100;2023-02-01T08:27:04;5.60;;;2.22;;
56401;SDS011;42299;35.160;26.100;2023-02-01T08:28:28;4.10;;;2.30;;
56401;SDS011;42299;35.160;26.100;2023-02-01T08:29:50;4.07;;;1.50;;
56401;SDS011;42299;35.160;26.100;2023-02-01T08:31:14;3.70;;;1.58;;
56401;SDS011;42299;35.160;26.100;2023-02-01T08:32:38;4.80;;;1.20;;
56401;SDS011;42299;35.160;26.100;2023-02-01T08:34:01;4.38;;;1.60;;
56401;SDS011;42299;35.160;26.100;2023-02-01T08:35:25;4.30;;;1.52;;
56401;SDS011;42299;35.160;26.100;2023-02-01T08:36:47;4.53;;;1.30;;